AirNav   Air Wisconsin pilot careers
 
 656 users online  

8G8 Koons Airport
Salem, Ohio, USA

GOING TO SALEM?


FAA INFORMATION EFFECTIVE 09 NOVEMBER 2017

Location

FAA Identifier: 8G8
Lat/Long: 40-53-00.2120N / 080-52-59.3050W
40-53.003533N / 080-52.988417W
40.8833922 / -80.8831403
(estimated)
Elevation: 1327 ft. / 404 m (estimated)
Variation: 07W (1985)
From city: 2 miles SW of SALEM, OH
Time zone: UTC -5 (UTC -4 during Daylight Saving Time)
Zip code: 44460

Airport Operations

Airport use: Open to the public
Control tower: no
ARTCC: CLEVELAND CENTER
FSS: CLEVELAND FLIGHT SERVICE STATION
NOTAMs facility: CLE (NOTAM-D service available)
Attendance: DAYLIGHT HOURS
Wind indicator: yes
Segmented circle: no

Airport Communications

CTAF: 122.9

Nearby radio navigation aids

VOR radial/distance  VOR name  Freq  Var
ACOr137/19.7AKRON VOR/DME114.4004W
BSVr075/26.4BRIGGS VOR/DME112.4004W
YNGr204/28.5YOUNGSTOWN VORTAC109.0005W
EWCr285/30.7ELLWOOD CITY VORTAC115.8008W
MMJr315/39.3MONTOUR VORTAC112.0008W

 
NDB name  Hdg/Dist  Freq  Var  ID
CASTLE257/22.827209WUCP ..- -.-. .--.
CADIZ016/39.223907WCFX -.-. ..-. -..-

Airport Services

Parking: tiedowns
Airframe service: NONE
Powerplant service: NONE

Runway Information

Runway 9/27

Dimensions: 1850 x 100 ft. / 564 x 30 m
Surface: turf, in good condition
RUNWAY 9  RUNWAY 27
Latitude: 40-53.008667N40-52.998167N
Longitude: 080-53.188833W080-52.787667W
Elevation: 1327.0 ft.1327.0 ft.
Gradient: 1.4%1.4%
Traffic pattern: leftright
Runway end identifier lights: nono
Obstructions: 27 ft. tree, 388 ft. from runway, 72 ft. left of centerline, 14:1 slope to clear76 ft. trees, 125 ft. left of centerline
RY 27 APPROACH RATIO 2:1 DUE TO 76 FT TREES 215 FT FM, 125 FT 'L'.

Airport Ownership and Management from official FAA records

Ownership: Privately-owned
Owner: DAVID & HARRY KOONS
1760 ST RTE 9
SALEM, OH 44460
Phone 330-337-7303
Manager: DAVID & HARRY KOONS
1760 ST RTE 9
SALEM, OH 44460
Phone 330-337-7303
ADDITIONAL PHONE NUMBER 330-337-1780.

Airport Operational Statistics

Aircraft based on the field: 8
Single engine airplanes: 7
Ultralights: 1
    
Aircraft operations: avg 49/week *
98% local general aviation
2% transient general aviation
<1% military
* for 12-month period ending 18 September 2014

Additional Remarks

FOR IFR CLEARANCE CTC CLEVELAND ARTCC (ZOB) 120.775/298.95 OR CALL ZOB 440-774-0489.

Instrument Procedures

There are no published instrument procedures at 8G8.

Some nearby airports with instrument procedures:

38D - Salem Airpark Inc (4 nm N)
3G6 - Tri-City Airport (5 nm W)
4G4 - Youngstown Elser Metro Airport (10 nm NE)
02G - Columbiana County Airport (17 nm SE)
KTSO - Carroll County-Tolson Airport (21 nm SW)
 
Loc | Ops | Rwys | IFR | FBO | Links
Com | Nav | Svcs | Stats | Notes


 
Area around 8G8 (Koons Airport)
 
Road maps at: MapQuest Bing Google
 
Aerial photo
WARNING: Photo may not be current or correct
Aerial photo of 8G8 (Koons Airport)
Photo by Rick Hunt
Photo taken 22-Mar-2015
looking south.

Do you have a better or more recent aerial photo of Koons Airport that you would like to share? If so, please send us your photo.

 
Sectional chart

 
Airport distance calculator
Flying to Koons Airport? Find the distance to fly.

From to 8G8

Sunrise and sunset
Times for 18-Nov-2017
 Local
(UTC-5)
 Zulu
(UTC)
Morning civil twilight06:4611:46
Sunrise07:1512:15
Sunset17:0222:02
Evening civil twilight17:3222:32

Current date and time
Zulu (UTC)  19-Nov-2017 04:34:35
Local (UTC-5)  18-Nov-2017 23:34:35
 
METAR
KUCP 
23nm E 
190408Z AUTO 29016G28KT 5SM RA BR OVC005 11/11 A2916 RMK AO2 PK WND 28028/0407 CIG 002V007 PRESRR P0003
KBVI 
23nm E 
182147Z 13005KT 10SM OVC034 08/07 A2934 RMK LAST
KYNG 
24nm NE 
190423Z 30017G30KT 4SM -RA BR BKN008 OVC013 07/06 A2920 RMK AO2 PK WND 30038/0400 P0002 T00670061
KPOV 
26nm NW 
190425Z AUTO 30016G27KT 7SM +RA OVC008 03/02 A2929 RMK AO2 P0002 T00320020
KCAK 
26nm W 
190400Z 32021G35KT 9SM -RA BKN009 OVC015 05/02 A2928 RMK AO2 PK WND 32035/0353 P0000 T00500022 $
KAKR 
28nm W 
190354Z AUTO 32019G36KT 10SM -RA BKN013 OVC020 06/03 A2929 RMK AO2 PK WND 30036/0345 SLP920 P0002 T00560028
KPHD 
35nm SW 
190353Z AUTO 32021G27KT 6SM -RA BR SCT013 BKN018 OVC041 07/05 A2928 RMK AO2 PK WND 32031/0319 WSHFT 0253 SLP918 P0005 T00720050
KPIT 
36nm SE 
190351Z 21012G19KT 10SM BKN019 OVC025 15/13 A2912 RMK AO2 RAB16E38 PRESFR SLP866 P0001 T01500133
KBTP 
43nm E 
190419Z AUTO 18010KT 10SM FEW008 OVC017 13/12 A2912 RMK AO2 RAE03 P0000
KHLG 
44nm S 
190422Z AUTO 30029G44KT 1 1/2SM R03/4500VP6000FT +RA BR FEW006 BKN013 OVC019 10/09 A2922 RMK AO2 PK WND 30044/0422 WSHFT 0406 RAB13 PRESRR P0012 T01000089
TAF
KBVI 
23nm E 
190101Z 1901/1924 19015G30KT 4SM SHRA OVC025 FM190600 28015G35KT 5SM -SHRA OVC008 FM191000 28014G28KT P6SM VCSH OVC015 FM191800 30012G25KT P6SM BKN025
KYNG 
24nm NE 
182049Z 1821/1918 18012KT 5SM -SHRA SCT004 OVC025 WS020/22045KT FM182200 18012KT 3SM -SHRA VCTS SCT006 OVC012CB WS020/20045KT TEMPO 1823/1901 VRB25G35KT 3/4SM -TSRA OVC006CB FM190200 27020G35KT 2SM -SHRA BR OVC005 FM191200 30020G40KT P6SM VCSH SCT005 OVC012
KCAK 
26nm W 
190251Z 1903/1924 30015G30KT 6SM -SHRA OVC008 FM190800 31020G35KT P6SM VCSH OVC015 FM191500 29015G25KT P6SM OVC025
NOTAMs
Click for the latest NOTAMs
NOTAMs are issued by the DoD/FAA and will open in a separate window not controlled by AirNav.

 

 
 

Would you like to see your business listed on this page?

 If your business provides an interesting product or service to pilots, flight crews, aircraft, or users of the Koons Airport, you should consider listing it here.  To start the listing process, click on the button below
 
Add a business
 

Other Pages about Koons Airport

Update a link
 
Copyright © AirNav, LLC. All rights reserved. Privacy Policy  Contact